createdAt,value
2023-04-10T00:01:09.761Z,12.78
2023-04-10T00:04:03.305Z,12.77
2023-04-10T00:06:55.618Z,12.74
2023-04-10T00:09:47.414Z,12.71
2023-04-10T00:12:38.106Z,12.66
2023-04-10T00:15:28.883Z,12.60
2023-04-10T00:18:19.573Z,12.52
2023-04-10T00:21:09.136Z,12.48
2023-04-10T00:24:01.190Z,12.45
2023-04-10T00:26:50.386Z,12.42
2023-04-10T00:29:39.646Z,12.37
2023-04-10T00:32:28.947Z,12.35
2023-04-10T00:35:19.904Z,12.31
2023-04-10T00:38:09.105Z,12.25
2023-04-10T00:40:58.382Z,12.26
2023-04-10T00:43:47.817Z,12.23
2023-04-10T00:46:40.867Z,12.13
2023-04-10T00:49:30.034Z,12.13
2023-04-10T00:52:21.072Z,12.14
2023-04-10T00:55:12.062Z,12.16
2023-04-10T00:58:01.387Z,12.13
2023-04-10T01:00:50.624Z,12.13
2023-04-10T01:03:40.863Z,12.12
2023-04-10T01:06:53.199Z,12.17
2023-04-10T01:09:57.352Z,12.18
2023-04-10T01:13:01.026Z,12.19
2023-04-10T01:15:58.421Z,12.23
2023-04-10T01:18:55.539Z,12.29
2023-04-10T01:21:45.438Z,12.29
2023-04-10T01:24:57.673Z,12.37
2023-04-10T01:28:01.044Z,12.20
2023-04-10T01:30:53.747Z,12.39
2023-04-10T01:33:49.226Z,12.39
2023-04-10T01:36:48.580Z,12.28
2023-04-10T01:39:42.818Z,12.38
2023-04-10T01:42:36.361Z,12.33
2023-04-10T01:45:28.882Z,12.39
2023-04-10T01:48:20.567Z,12.35
2023-04-10T01:51:12.266Z,12.25
2023-04-10T01:54:05.708Z,12.36
2023-04-10T01:56:57.349Z,12.30
2023-04-10T01:59:49.260Z,12.38
2023-04-10T02:02:38.921Z,12.36
2023-04-10T02:05:40.974Z,12.43
2023-04-10T02:08:36.238Z,12.39
2023-04-10T02:11:38.437Z,12.36
2023-04-10T02:14:30.584Z,12.36
2023-04-10T02:17:27.499Z,12.35
2023-04-10T02:20:18.674Z,12.29
2023-04-10T02:23:10.354Z,12.32
2023-04-10T02:25:59.691Z,12.39
2023-04-10T02:28:48.898Z,12.38
2023-04-10T02:31:38.920Z,12.43
2023-04-10T02:34:28.203Z,12.47
2023-04-10T02:37:17.478Z,12.45
2023-04-10T02:40:10.105Z,12.44
2023-04-10T02:43:08.695Z,12.40
2023-04-10T02:45:58.011Z,12.42
2023-04-10T02:48:50.512Z,12.46
2023-04-10T02:51:40.278Z,12.43
2023-04-10T02:54:29.763Z,12.45
2023-04-10T02:57:21.433Z,12.46
2023-04-10T03:00:12.566Z,12.53
2023-04-10T03:03:21.419Z,12.40
2023-04-10T03:06:15.098Z,12.35
2023-04-10T03:09:07.299Z,12.43
2023-04-10T03:11:56.585Z,12.32
2023-04-10T03:14:47.429Z,12.31
2023-04-10T03:17:36.682Z,12.30
2023-04-10T03:20:25.920Z,12.36
2023-04-10T03:23:15.150Z,12.35
2023-04-10T03:26:04.772Z,12.23
2023-04-10T03:28:59.441Z,12.19
2023-04-10T03:31:50.040Z,12.20
2023-04-10T03:34:39.215Z,12.12
2023-04-10T03:37:28.590Z,12.04
2023-04-10T03:40:17.944Z,12.02
2023-04-10T03:43:07.610Z,12.02
2023-04-10T03:45:57.751Z,11.89
2023-04-10T03:48:49.786Z,11.75
2023-04-10T03:51:39.290Z,11.77
2023-04-10T03:54:29.566Z,11.73
2023-04-10T03:57:21.290Z,11.70
2023-04-10T04:00:13.390Z,11.70
2023-04-10T04:03:11.547Z,11.61
2023-04-10T04:06:27.362Z,11.59
2023-04-10T04:09:56.491Z,11.57
2023-04-10T04:13:01.882Z,11.48
2023-04-10T04:16:13.797Z,11.45
2023-04-10T04:19:18.762Z,11.40
2023-04-10T04:22:28.125Z,11.47
2023-04-10T04:25:35.926Z,11.43
2023-04-10T04:28:29.588Z,11.41
2023-04-10T04:31:42.908Z,11.40
2023-04-10T04:34:38.995Z,11.38
2023-04-10T04:37:48.231Z,11.24
2023-04-10T04:41:16.666Z,11.20
2023-04-10T04:44:45.471Z,11.14
2023-04-10T04:47:57.558Z,11.20
2023-04-10T04:51:16.112Z,11.20
2023-04-10T04:54:12.796Z,11.09
2023-04-10T04:57:28.695Z,11.15
2023-04-10T05:00:36.409Z,11.12
2023-04-10T05:03:49.519Z,11.13
2023-04-10T05:07:08.198Z,11.03
2023-04-10T05:10:21.995Z,11.07
2023-04-10T05:13:29.983Z,11.08
2023-04-10T05:16:46.065Z,11.07
2023-04-10T05:19:54.099Z,11.07
2023-04-10T05:23:03.912Z,10.97
2023-04-10T05:26:17.482Z,11.00
2023-04-10T05:29:27.092Z,10.99
2023-04-10T05:32:39.181Z,10.95
2023-04-10T05:35:50.461Z,11.01
2023-04-10T05:38:59.873Z,11.02
2023-04-10T05:42:08.588Z,11.03
2023-04-10T05:45:12.529Z,11.12
2023-04-10T05:48:26.228Z,11.13
2023-04-10T05:51:41.725Z,11.15
2023-04-10T05:54:41.586Z,11.18
2023-04-10T05:57:38.517Z,11.15
2023-04-10T06:00:59.914Z,11.21
2023-04-10T06:04:03.024Z,11.15
2023-04-10T06:06:52.940Z,11.19
2023-04-10T06:09:43.762Z,11.29
2023-04-10T06:12:33.261Z,11.22
2023-04-10T06:15:26.545Z,11.32
2023-04-10T06:18:16.190Z,11.39
2023-04-10T06:21:06.137Z,11.53
2023-04-10T06:24:04.116Z,11.63
2023-04-10T06:26:53.373Z,11.65
2023-04-10T06:29:47.125Z,11.68
2023-04-10T06:32:43.406Z,11.68
2023-04-10T06:35:36.668Z,11.74
2023-04-10T06:38:26.741Z,11.75
2023-04-10T06:41:16.184Z,11.78
2023-04-10T06:44:08.251Z,11.71
2023-04-10T06:46:57.523Z,11.65
2023-04-10T06:49:48.211Z,11.60
2023-04-10T06:52:37.693Z,11.59
2023-04-10T06:55:27.252Z,11.50
2023-04-10T06:58:16.688Z,11.35
2023-04-10T07:01:06.458Z,11.33
2023-04-10T07:03:56.435Z,11.21
2023-04-10T07:06:47.484Z,11.09
2023-04-10T07:09:36.763Z,11.04
2023-04-10T07:12:26.728Z,10.95
2023-04-10T07:15:16.354Z,10.69
2023-04-10T07:18:05.580Z,10.78
2023-04-10T07:20:55.173Z,10.69
2023-04-10T07:23:45.873Z,10.62
2023-04-10T07:26:35.057Z,10.48
2023-04-10T07:29:24.527Z,10.44
2023-04-10T07:32:13.830Z,10.45
2023-04-10T07:35:03.185Z,10.38
2023-04-10T07:37:52.914Z,10.38
2023-04-10T07:40:43.444Z,10.17
2023-04-10T07:43:32.743Z,10.23
2023-04-10T07:46:22.382Z,10.13
2023-04-10T07:49:12.222Z,10.01
2023-04-10T07:52:01.793Z,10.06
2023-04-10T07:54:51.030Z,9.98
2023-04-10T07:57:42.340Z,10.10
2023-04-10T08:00:32.002Z,10.06
2023-04-10T08:03:21.469Z,10.11
2023-04-10T08:06:11.405Z,10.12
2023-04-10T08:09:01.768Z,10.15
2023-04-10T08:11:51.271Z,10.14
2023-04-10T08:14:41.858Z,10.07
2023-04-10T08:17:31.031Z,10.06
2023-04-10T08:20:20.621Z,10.11
2023-04-10T08:23:19.926Z,10.06
2023-04-10T08:26:10.181Z,10.15
2023-04-10T08:29:01.401Z,10.12
2023-04-10T08:31:52.085Z,10.16
2023-04-10T08:34:41.550Z,10.20
2023-04-10T08:37:30.725Z,10.24
2023-04-10T08:40:20.117Z,10.20
2023-04-10T08:43:09.581Z,10.22
2023-04-10T08:45:58.827Z,10.21
2023-04-10T08:49:05.182Z,10.29
2023-04-10T08:52:00.166Z,10.30
2023-04-10T08:54:52.577Z,10.39
2023-04-10T08:57:45.221Z,10.49
2023-04-10T09:00:38.832Z,10.43
2023-04-10T09:03:29.140Z,10.47
2023-04-10T09:06:19.893Z,10.65
2023-04-10T09:09:09.271Z,10.79
2023-04-10T09:12:02.636Z,11.42
2023-04-10T09:14:53.606Z,12.01
2023-04-10T09:18:01.245Z,12.40
2023-04-10T09:20:51.728Z,12.53
2023-04-10T09:23:44.609Z,12.54
2023-04-10T09:26:34.779Z,12.65
2023-04-10T09:29:24.274Z,12.83
2023-04-10T09:32:14.320Z,12.74
2023-04-10T09:35:05.206Z,12.73
2023-04-10T09:37:54.484Z,12.63
2023-04-10T09:40:45.759Z,12.74
2023-04-10T09:43:35.221Z,13.19
2023-04-10T09:46:29.530Z,13.48
2023-04-10T09:49:18.804Z,13.79
2023-04-10T09:52:29.180Z,14.08
2023-04-10T09:55:19.005Z,14.47
2023-04-10T09:58:10.006Z,14.42
2023-04-10T10:01:01.915Z,14.54
2023-04-10T10:03:51.727Z,14.48
2023-04-10T10:06:41.228Z,14.32
2023-04-10T10:09:30.526Z,14.03
2023-04-10T10:12:26.593Z,13.76
2023-04-10T10:15:31.008Z,13.51
2023-04-10T10:18:33.016Z,13.41
2023-04-10T10:21:23.444Z,13.43
2023-04-10T10:24:17.236Z,13.51
2023-04-10T10:27:10.701Z,13.77
2023-04-10T10:30:08.401Z,14.46
2023-04-10T10:33:08.948Z,14.81
2023-04-10T10:36:03.096Z,15.30
2023-04-10T10:39:03.166Z,15.70
2023-04-10T10:42:03.526Z,16.01
2023-04-10T10:45:02.457Z,15.85
2023-04-10T10:47:59.273Z,15.33
2023-04-10T10:50:57.380Z,15.18
2023-04-10T10:53:47.065Z,14.87
2023-04-10T10:56:40.070Z,14.56
2023-04-10T10:59:59.817Z,14.36
2023-04-10T11:03:30.670Z,14.46
2023-04-10T11:06:43.633Z,14.23
2023-04-10T11:09:54.585Z,14.28
2023-04-10T11:13:18.191Z,14.50
2023-04-10T11:16:10.587Z,14.40
2023-04-10T11:19:14.265Z,14.32
2023-04-10T11:22:09.167Z,14.43
2023-04-10T11:25:02.662Z,14.66
2023-04-10T11:27:55.764Z,14.71
2023-04-10T11:30:45.878Z,14.59
2023-04-10T11:33:35.965Z,14.76
2023-04-10T11:36:26.924Z,14.95
2023-04-10T11:39:19.295Z,14.52
2023-04-10T11:42:11.752Z,13.95
2023-04-10T11:45:03.659Z,13.04
2023-04-10T11:47:56.105Z,12.29
2023-04-10T11:50:45.707Z,11.66
2023-04-10T11:53:35.183Z,11.27
2023-04-10T11:56:25.908Z,10.99
2023-04-10T11:59:19.999Z,10.74
2023-04-10T12:02:15.471Z,10.66
2023-04-10T12:05:05.200Z,10.49
2023-04-10T12:07:54.563Z,10.77
2023-04-10T12:10:47.737Z,10.69
2023-04-10T12:13:38.583Z,10.69
2023-04-10T12:16:28.380Z,10.70
2023-04-10T12:19:18.301Z,10.76
2023-04-10T12:22:07.842Z,10.94
2023-04-10T12:24:58.071Z,11.11
2023-04-10T12:27:51.971Z,11.16
2023-04-10T12:30:52.917Z,11.37
2023-04-10T12:33:45.508Z,11.72
2023-04-10T12:36:35.611Z,11.83
2023-04-10T12:39:27.016Z,11.96
2023-04-10T12:42:17.999Z,11.95
2023-04-10T12:45:09.998Z,12.23
2023-04-10T12:48:00.813Z,12.67
2023-04-10T12:50:51.042Z,13.13
2023-04-10T12:53:45.813Z,13.82
2023-04-10T12:56:43.462Z,14.40
2023-04-10T12:59:33.764Z,14.82
2023-04-10T13:02:24.986Z,15.41
2023-04-10T13:05:16.715Z,15.96
2023-04-10T13:08:06.338Z,16.30
2023-04-10T13:10:58.201Z,16.36
2023-04-10T13:13:48.683Z,16.43
2023-04-10T13:16:38.430Z,16.64
2023-04-10T13:19:27.747Z,17.15
2023-04-10T13:22:18.458Z,17.05
2023-04-10T13:25:08.432Z,16.77
2023-04-10T13:27:57.753Z,16.49
2023-04-10T13:30:46.993Z,16.35
2023-04-10T13:33:36.266Z,16.54
2023-04-10T13:36:26.343Z,16.69
2023-04-10T13:39:18.713Z,16.82
2023-04-10T13:42:08.091Z,16.58
2023-04-10T13:44:57.336Z,16.33
2023-04-10T13:47:46.820Z,16.70
2023-04-10T13:50:36.229Z,17.27
2023-04-10T13:53:25.618Z,17.27
2023-04-10T13:56:16.263Z,16.73
2023-04-10T13:59:06.982Z,16.07
2023-04-10T14:01:56.338Z,15.90
2023-04-10T14:04:46.281Z,16.14
2023-04-10T14:07:35.779Z,16.14
2023-04-10T14:10:25.285Z,15.50
2023-04-10T14:13:15.971Z,14.77
2023-04-10T14:16:05.339Z,13.98
2023-04-10T14:18:55.503Z,13.32
2023-04-10T14:21:45.136Z,12.84
2023-04-10T14:24:34.390Z,12.67
2023-04-10T14:27:23.689Z,12.95
2023-04-10T14:30:14.985Z,13.62
2023-04-10T14:33:04.235Z,14.31
2023-04-10T14:35:54.984Z,15.06
2023-04-10T14:38:44.199Z,15.41
2023-04-10T14:41:33.445Z,15.95
2023-04-10T14:44:22.688Z,16.25
2023-04-10T14:47:13.799Z,15.86
2023-04-10T14:50:03.020Z,15.99
2023-04-10T14:52:53.046Z,16.07
2023-04-10T14:55:42.418Z,16.29
2023-04-10T14:58:31.766Z,16.25
2023-04-10T15:01:21.094Z,15.85
2023-04-10T15:04:13.073Z,15.09
2023-04-10T15:07:02.570Z,14.48
2023-04-10T15:09:52.088Z,14.20
2023-04-10T15:12:42.551Z,14.27
2023-04-10T15:15:31.812Z,14.57
2023-04-10T15:18:21.008Z,14.84
2023-04-10T15:21:11.573Z,14.78
2023-04-10T15:24:01.149Z,14.98
2023-04-10T15:26:50.502Z,15.52
2023-04-10T15:29:41.701Z,15.78
2023-04-10T15:32:31.002Z,15.24
2023-04-10T15:35:20.321Z,14.83
2023-04-10T15:38:12.867Z,14.45
2023-04-10T15:41:02.138Z,14.09
2023-04-10T15:43:51.353Z,14.08
2023-04-10T15:46:40.767Z,14.17
2023-04-10T15:49:37.771Z,14.08
2023-04-10T15:52:29.465Z,13.86
2023-04-10T15:55:20.431Z,13.55
2023-04-10T15:58:09.624Z,13.38
2023-04-10T16:00:58.880Z,13.24
2023-04-10T16:03:49.410Z,12.63
2023-04-10T16:06:38.694Z,12.36
2023-04-10T16:09:28.078Z,12.19
2023-04-10T16:12:18.812Z,12.07
2023-04-10T16:15:09.367Z,11.50
2023-04-10T16:17:58.991Z,11.78
2023-04-10T16:20:48.303Z,11.53
2023-04-10T16:23:37.522Z,11.78
2023-04-10T16:26:26.869Z,12.12
2023-04-10T16:29:19.886Z,12.20
2023-04-10T16:32:09.170Z,12.39
2023-04-10T16:34:58.530Z,12.28
2023-04-10T16:37:48.077Z,12.01
2023-04-10T16:40:37.360Z,11.85
2023-04-10T16:43:26.545Z,11.34
2023-04-10T16:46:17.346Z,10.84
2023-04-10T16:49:06.658Z,10.43
2023-04-10T16:51:56.764Z,10.41
2023-04-10T16:54:45.969Z,10.27
2023-04-10T16:57:35.430Z,10.27
2023-04-10T17:00:24.666Z,10.44
2023-04-10T17:03:15.274Z,10.42
2023-04-10T17:06:04.825Z,10.35
2023-04-10T17:08:54.426Z,10.40
2023-04-10T17:11:44.064Z,10.33
2023-04-10T17:14:33.446Z,10.40
2023-04-10T17:17:22.881Z,10.35
2023-04-10T17:20:15.588Z,10.36
2023-04-10T17:23:04.879Z,10.27
2023-04-10T17:25:54.127Z,10.23
2023-04-10T17:28:45.274Z,10.27
2023-04-10T17:31:34.529Z,10.19
2023-04-10T17:34:23.868Z,10.20
2023-04-10T17:37:14.445Z,10.20
2023-04-10T17:40:04.084Z,10.32
2023-04-10T17:42:53.368Z,10.50
2023-04-10T17:45:42.635Z,10.71
2023-04-10T17:48:31.769Z,10.75
2023-04-10T17:51:21.310Z,10.69
2023-04-10T17:54:12.519Z,10.91
2023-04-10T17:57:02.816Z,10.72
2023-04-10T17:59:52.019Z,10.62
2023-04-10T18:02:41.286Z,10.55
2023-04-10T18:05:30.970Z,10.44
2023-04-10T18:08:20.262Z,10.26
2023-04-10T18:11:11.228Z,10.34
2023-04-10T18:14:00.430Z,10.35
2023-04-10T18:16:50.441Z,10.15
2023-04-10T18:19:39.701Z,10.21
2023-04-10T18:22:30.139Z,10.26
2023-04-10T18:25:19.581Z,10.28
2023-04-10T18:28:14.934Z,10.24
2023-04-10T18:31:05.402Z,10.26
2023-04-10T18:34:04.094Z,10.18
2023-04-10T18:36:56.802Z,10.09
2023-04-10T18:39:46.033Z,10.09
2023-04-10T18:42:35.166Z,10.05
2023-04-10T18:45:26.068Z,10.02
2023-04-10T18:48:15.364Z,9.93
2023-04-10T18:51:04.574Z,10.02
2023-04-10T18:53:54.047Z,10.07
2023-04-10T18:56:43.465Z,10.04
2023-04-10T18:59:32.859Z,9.72
2023-04-10T19:02:23.726Z,9.71
2023-04-10T19:05:14.517Z,9.62
2023-04-10T19:08:04.903Z,9.55
2023-04-10T19:10:54.306Z,9.32
2023-04-10T19:13:43.549Z,9.24
2023-04-10T19:19:29.333Z,9.25
2023-04-10T19:22:18.596Z,9.21
2023-04-10T19:25:08.860Z,9.19
2023-04-10T19:27:58.176Z,9.24
2023-04-10T19:30:47.520Z,9.19
2023-04-10T19:33:36.831Z,9.09
2023-04-10T19:36:27.569Z,9.20
2023-04-10T19:39:16.769Z,9.23
2023-04-10T19:42:06.097Z,9.16
2023-04-10T19:44:55.620Z,9.18
2023-04-10T19:47:44.929Z,9.25
2023-04-10T19:50:35.152Z,9.24
2023-04-10T19:53:25.961Z,9.26
2023-04-10T19:56:16.729Z,9.37
2023-04-10T19:59:06.232Z,9.09
2023-04-10T20:01:56.950Z,9.09
2023-04-10T20:04:48.580Z,8.95
2023-04-10T20:07:38.272Z,8.83
2023-04-10T20:10:28.877Z,8.60
2023-04-10T20:13:18.135Z,8.59
2023-04-10T20:16:08.816Z,8.54
2023-04-10T20:18:58.132Z,8.59
2023-04-10T20:21:47.475Z,8.59
2023-04-10T20:24:36.736Z,8.47
2023-04-10T20:27:27.385Z,8.48
2023-04-10T20:30:16.675Z,8.48
2023-04-10T20:33:06.050Z,8.48
2023-04-10T20:35:55.512Z,8.37
2023-04-10T20:38:44.824Z,8.41
2023-04-10T20:41:34.015Z,8.38
2023-04-10T20:44:24.677Z,8.41
2023-04-10T20:47:14.486Z,8.37
2023-04-10T20:50:03.882Z,8.34
2023-04-10T20:52:53.206Z,8.47
2023-04-10T20:55:42.714Z,8.66
2023-04-10T20:58:31.989Z,8.66
2023-04-10T21:01:22.776Z,8.41
2023-04-10T21:04:12.045Z,8.44
2023-04-10T21:07:01.477Z,8.17
2023-04-10T21:09:50.759Z,8.31
2023-04-10T21:12:39.964Z,8.19
2023-04-10T21:15:29.130Z,8.25
2023-04-10T21:18:20.297Z,8.24
2023-04-10T21:21:10.304Z,8.11
2023-04-10T21:23:59.638Z,8.13
2023-04-10T21:26:49.061Z,8.04
2023-04-10T21:29:38.208Z,8.02
2023-04-10T21:32:27.482Z,7.92
2023-04-10T21:35:18.728Z,7.94
2023-04-10T21:38:08.141Z,7.82
2023-04-10T21:40:58.305Z,7.79
2023-04-10T21:43:47.858Z,7.85
2023-04-10T21:46:37.194Z,7.86
2023-04-10T21:49:26.537Z,7.85
2023-04-10T21:52:17.346Z,7.90
2023-04-10T21:55:08.223Z,7.85
2023-04-10T21:57:58.212Z,7.92
2023-04-10T22:00:47.726Z,7.85
2023-04-10T22:03:37.350Z,7.77
2023-04-10T22:06:26.769Z,7.80
2023-04-10T22:09:17.796Z,7.88
2023-04-10T22:12:07.490Z,7.95
2023-04-10T22:14:56.641Z,7.88
2023-04-10T22:17:46.038Z,7.85
2023-04-10T22:20:35.454Z,7.94
2023-04-10T22:23:24.744Z,7.85
2023-04-10T22:26:15.668Z,7.70
2023-04-10T22:29:05.773Z,7.84
2023-04-10T22:31:56.074Z,7.99
2023-04-10T22:34:45.437Z,7.95
2023-04-10T22:37:35.135Z,8.02
2023-04-10T22:40:24.339Z,8.02
2023-04-10T22:43:14.877Z,7.98
2023-04-10T22:46:04.201Z,7.99
2023-04-10T22:48:54.467Z,8.09
2023-04-10T22:51:45.614Z,8.07
2023-04-10T22:54:34.816Z,7.96
2023-04-10T22:57:24.093Z,7.92
2023-04-10T23:00:15.925Z,7.93
2023-04-10T23:03:05.366Z,7.86
2023-04-10T23:05:54.646Z,7.96
2023-04-10T23:08:43.970Z,8.04
2023-04-10T23:11:33.285Z,8.03
2023-04-10T23:14:22.559Z,7.89
2023-04-10T23:17:13.119Z,7.83
2023-04-10T23:20:02.385Z,7.97
2023-04-10T23:22:51.667Z,8.03
2023-04-10T23:25:41.011Z,7.99
2023-04-10T23:28:30.358Z,7.97
2023-04-10T23:31:19.697Z,7.81
2023-04-10T23:34:10.375Z,7.93
2023-04-10T23:36:59.884Z,7.89
2023-04-10T23:39:49.111Z,7.95
2023-04-10T23:42:38.388Z,7.87
2023-04-10T23:45:27.674Z,7.92
2023-04-10T23:48:16.971Z,7.87
2023-04-10T23:51:09.876Z,7.83
2023-04-10T23:53:59.606Z,7.95
2023-04-10T23:56:48.926Z,7.78
2023-04-10T23:59:38.123Z,7.89
